Time;durP1;ratioP1;P1;durP2;ratioP2;P2;SDS_P1;SDS_P2;PMS_P1;PMS_P2;Temp;Humidity;BMP_temperature;BMP_pressure;BME280_temperature;BME280_humidity;BME280_pressure;Samples;Min_cycle;Max_cycle;Signal;HPM_P1;HPM_P2
2023/02/15 00:00:55;;;;;;;;;;;;;;;;;;5053275;28;19909;-71
2023/02/15 00:03:21;;;;;;;;;;;;;;;;;;5052311;28;20378;-70
2023/02/15 00:05:47;;;;;;;;;;;;;;;;;;5053501;28;20016;-70
2023/02/15 00:08:13;;;;;;;;;;;;;;;;;;5053086;28;19908;-71
2023/02/15 00:10:38;;;;;;;;;;;;;;;;;;5052303;28;19909;-71
2023/02/15 00:13:04;;;;;;;;;;;;;;;;;;5052182;28;19909;-71
2023/02/15 00:15:30;;;;;;;;;;;;;;;;;;5053206;28;19919;-71
2023/02/15 00:17:56;;;;;;;;;;;;;;;;;;5053603;28;19909;-71
2023/02/15 00:20:22;;;;;;;;;;;;;;;;;;5053526;28;20008;-71
2023/02/15 00:22:48;;;;;;;;;;;;;;;;;;5053082;28;19909;-72
2023/02/15 00:25:14;;;;;;;;;;;;;;;;;;5052084;28;20240;-71
2023/02/15 00:27:40;;;;;;;;;;;;;;;;;;5053103;28;19963;-71
2023/02/15 00:30:06;;;;;;;;;;;;;;;;;;5053428;28;19913;-72
2023/02/15 00:32:32;;;;;;;;;;;;;;;;;;5053335;28;19948;-71
2023/02/15 00:34:58;;;;;;;;;;;;;;;;;;5053108;28;19909;-72
2023/02/15 00:37:24;;;;;;;;;;;;;;;;;;5053311;28;20007;-71
2023/02/15 00:39:50;;;;;;;;;;;;;;;;;;5053609;28;19916;-71
2023/02/15 00:42:16;;;;;;;;;;;;;;;;;;5051675;28;19909;-71
2023/02/15 00:44:42;;;;;;;;;;;;;;;;;;5053080;28;20021;-71
2023/02/15 00:47:07;;;;;;;;;;;;;;;;;;5053477;28;19917;-72
2023/02/15 00:49:33;;;;;;;;;;;;;;;;;;5052928;28;19999;-70
2023/02/15 00:51:59;;;;;;;;;;;;;;;;;;5053129;28;19909;-71
2023/02/15 00:54:25;;;;;;;;;;;;;;;;;;5053087;28;19909;-71
2023/02/15 00:56:51;;;;;;;;;;;;;;;;;;5052738;28;19935;-70
2023/02/15 00:59:17;;;;;;;;;;;;;;;;;;5053087;28;19909;-70
2023/02/15 01:01:43;;;;;;;;;;;;;;;;;;5053032;28;19908;-71
2023/02/15 01:04:09;;;;;;;;;;;;;;;;;;5052661;28;19995;-71
2023/02/15 01:06:35;;;;;;;;;;;;;;;;;;5051699;28;19923;-70
2023/02/15 01:09:01;;;;;;;;;;;;;;;;;;5053439;28;20061;-71
2023/02/15 01:11:27;;;;;;;;;;;;;;;;;;5056158;28;20300;-71
2023/02/15 01:13:53;;;;;;;;;;;;;;;;;;5056565;28;20297;-71
2023/02/15 01:16:19;;;;;;;;;;;;;;;;;;5056514;28;19908;-71
2023/02/15 01:18:45;;;;;;;;;;;;;;;;;;5054833;28;19913;-71
2023/02/15 01:21:11;;;;;;;;;;;;;;;;;;5056385;28;20266;-71
2023/02/15 01:23:37;;;;;;;;;;;;;;;;;;5055035;28;19909;-71
2023/02/15 01:26:03;;;;;;;;;;;;;;;;;;5055868;28;20358;-72
2023/02/15 01:28:29;;;;;;;;;;;;;;;;;;5056483;28;19909;-72
2023/02/15 01:30:54;;;;;;;;;;;;;;;;;;5055008;28;19909;-72
2023/02/15 01:33:20;;;;;;;;;;;;;;;;;;5055940;28;20420;-70
2023/02/15 01:35:46;;;;;;;;;;;;;;;;;;5056127;28;19931;-72
2023/02/15 01:38:12;;;;;;;;;;;;;;;;;;5055607;28;19945;-71
2023/02/15 01:40:38;;;;;;;;;;;;;;;;;;5056009;28;19980;-71
2023/02/15 01:43:04;;;;;;;;;;;;;;;;;;5056221;28;20242;-71
2023/02/15 01:45:30;;;;;;;;;;;;;;;;;;5055302;28;19975;-71
2023/02/15 01:47:56;;;;;;;;;;;;;;;;;;5055874;28;19988;-70
2023/02/15 01:50:22;;;;;;;;;;;;;;;;;;5055879;28;19916;-71
2023/02/15 01:52:48;;;;;;;;;;;;;;;;;;5055669;28;19916;-71
2023/02/15 01:55:14;;;;;;;;;;;;;;;;;;5055750;28;19909;-71
2023/02/15 01:57:40;;;;;;;;;;;;;;;;;;5054422;28;20308;-70
2023/02/15 02:00:06;;;;;;;;;;;;;;;;;;5055251;28;20280;-70
2023/02/15 02:02:32;;;;;;;;;;;;;;;;;;5055801;28;20336;-70
2023/02/15 02:04:58;;;;;;;;;;;;;;;;;;5054298;28;19931;-71
2023/02/15 02:07:24;;;;;;;;;;;;;;;;;;5054960;28;20380;-70
2023/02/15 02:09:50;;;;;;;;;;;;;;;;;;5054825;28;20269;-71
2023/02/15 02:12:16;;;;;;;;;;;;;;;;;;5055451;28;20346;-70
2023/02/15 02:14:41;;;;;;;;;;;;;;;;;;5055058;28;20333;-71
2023/02/15 02:17:09;;;;;;;;;;;;;;;;;;5055391;28;20284;-72
2023/02/15 02:19:35;;;;;;;;;;;;;;;;;;5055343;28;19923;-71
2023/02/15 02:22:00;;;;;;;;;;;;;;;;;;5054769;28;19999;-71
2023/02/15 02:24:26;;;;;;;;;;;;;;;;;;5054027;28;19963;-71
2023/02/15 02:26:52;;;;;;;;;;;;;;;;;;5055222;28;19970;-71
2023/02/15 02:29:18;;;;;;;;;;;;;;;;;;5054759;28;19932;-71
2023/02/15 02:31:44;;;;;;;;;;;;;;;;;;5053888;28;19913;-71
2023/02/15 02:34:10;;;;;;;;;;;;;;;;;;5055055;28;19931;-71
2023/02/15 02:36:36;;;;;;;;;;;;;;;;;;5053276;28;19948;-71
2023/02/15 02:39:02;;;;;;;;;;;;;;;;;;5054939;28;19916;-71
2023/02/15 02:41:28;;;;;;;;;;;;;;;;;;5054825;28;20397;-71
2023/02/15 02:43:54;;;;;;;;;;;;;;;;;;5054701;28;20254;-71
2023/02/15 02:46:20;;;;;;;;;;;;;;;;;;5054797;28;19917;-71
2023/02/15 02:48:46;;;;;;;;;;;;;;;;;;5054412;28;19967;-71
2023/02/15 02:51:13;;;;;;;;;;;;;;;;;;5054793;28;19934;-71
2023/02/15 02:53:39;;;;;;;;;;;;;;;;;;5054843;28;19967;-72
2023/02/15 02:56:05;;;;;;;;;;;;;;;;;;5054256;28;20381;-72
2023/02/15 02:58:31;;;;;;;;;;;;;;;;;;5054587;28;19951;-71
2023/02/15 03:00:57;;;;;;;;;;;;;;;;;;5054503;28;19909;-71
2023/02/15 03:03:23;;;;;;;;;;;;;;;;;;5054052;28;19908;-71
2023/02/15 03:05:49;;;;;;;;;;;;;;;;;;5053091;28;19963;-71
2023/02/15 03:08:21;;;;;;;;;;;;;;;;;;5054368;28;19908;-69
2023/02/15 03:10:47;;;;;;;;;;;;;;;;;;5054211;28;19909;-70
2023/02/15 03:13:13;;;;;;;;;;;;;;;;;;5054820;28;20234;-70
2023/02/15 03:18:23;;;;;;;;;;;;;;;;;;5053892;28;19955;-70
2023/02/15 03:20:49;;;;;;;;;;;;;;;;;;5054191;28;20285;-71
2023/02/15 03:23:15;;;;;;;;;;;;;;;;;;5054134;28;19909;-70
2023/02/15 03:25:41;;;;;;;;;;;;;;;;;;5053551;28;19928;-69
2023/02/15 03:28:07;;;;;;;;;;;;;;;;;;5052751;28;19948;-70
2023/02/15 03:30:33;;;;;;;;;;;;;;;;;;5053611;28;20375;-70
2023/02/15 03:32:59;;;;;;;;;;;;;;;;;;5052244;28;20004;-71
2023/02/15 03:35:25;;;;;;;;;;;;;;;;;;5052742;28;19909;-71
2023/02/15 03:37:51;;;;;;;;;;;;;;;;;;5053483;28;20335;-71
2023/02/15 03:43:02;;;;;;;;;;;;;;;;;;5053873;28;19916;-71
2023/02/15 03:45:28;;;;;;;;;;;;;;;;;;5051736;28;19925;-71
2023/02/15 03:47:54;;;;;;;;;;;;;;;;;;5053845;28;20011;-71
2023/02/15 03:53:04;;;;;;;;;;;;;;;;;;5053335;28;20333;-71
2023/02/15 03:55:30;;;;;;;;;;;;;;;;;;5053691;28;19952;-71
2023/02/15 04:03:25;;;;;;;;;;;;;;;;;;5053713;28;19916;-71
2023/02/15 04:05:51;;;;;;;;;;;;;;;;;;5051803;28;19921;-71
2023/02/15 04:08:17;;;;;;;;;;;;;;;;;;5053734;28;19913;-71
2023/02/15 04:10:52;;;;;;;;;;;;;;;;;;5053853;28;20008;-71
2023/02/15 04:13:18;;;;;;;;;;;;;;;;;;5053219;28;19955;-71
2023/02/15 04:16:02;;;;;;;;;;;;;;;;;;5053643;28;19909;-71
2023/02/15 04:26:42;;;;;;;;;;;;;;;;;;5053425;28;19950;-71
2023/02/15 04:29:08;;;;;;;;;;;;;;;;;;5052944;28;19948;-71
2023/02/15 04:31:34;;;;;;;;;;;;;;;;;;5052200;28;19918;-71
2023/02/15 04:34:00;;;;;;;;;;;;;;;;;;5051758;28;20436;-71
2023/02/15 04:36:26;;;;;;;;;;;;;;;;;;5053383;28;19909;-71
2023/02/15 04:38:52;;;;;;;;;;;;;;;;;;5053274;28;20380;-71
2023/02/15 04:41:18;;;;;;;;;;;;;;;;;;5052900;28;20375;-71
2023/02/15 04:43:44;;;;;;;;;;;;;;;;;;5053299;28;20381;-71
2023/02/15 04:46:10;;;;;;;;;;;;;;;;;;5056790;28;20336;-71
2023/02/15 04:48:35;;;;;;;;;;;;;;;;;;5056638;28;20345;-70
2023/02/15 04:51:01;;;;;;;;;;;;;;;;;;5057285;28;20328;-71
2023/02/15 04:53:27;;;;;;;;;;;;;;;;;;5055644;28;20273;-71
2023/02/15 04:55:53;;;;;;;;;;;;;;;;;;5055361;28;19909;-71
2023/02/15 04:58:19;;;;;;;;;;;;;;;;;;5056847;28;19932;-71
2023/02/15 05:00:45;;;;;;;;;;;;;;;;;;5056801;28;19908;-71
2023/02/15 05:03:11;;;;;;;;;;;;;;;;;;5056391;28;19913;-71
2023/02/15 05:05:37;;;;;;;;;;;;;;;;;;5056655;28;19920;-71
2023/02/15 05:08:03;;;;;;;;;;;;;;;;;;5056661;28;19917;-71
2023/02/15 05:10:29;;;;;;;;;;;;;;;;;;5056227;28;19915;-71
2023/02/15 05:12:55;;;;;;;;;;;;;;;;;;5056563;28;19909;-71
2023/02/15 05:15:21;;;;;;;;;;;;;;;;;;5055255;28;19920;-71
2023/02/15 05:17:47;;;;;;;;;;;;;;;;;;5056078;28;20351;-71
2023/02/15 05:20:13;;;;;;;;;;;;;;;;;;5055355;28;20273;-71
2023/02/15 05:22:40;;;;;;;;;;;;;;;;;;5056431;28;19916;-71
2023/02/15 05:30:36;;;;;;;;;;;;;;;;;;5056040;28;20015;-71
2023/02/15 05:33:01;;;;;;;;;;;;;;;;;;5056081;28;19956;-71
2023/02/15 05:35:27;;;;;;;;;;;;;;;;;;5056135;28;19962;-71
2023/02/15 05:37:53;;;;;;;;;;;;;;;;;;5054380;28;19991;-71
2023/02/15 05:40:19;;;;;;;;;;;;;;;;;;5055570;28;19963;-71
2023/02/15 05:42:45;;;;;;;;;;;;;;;;;;5056014;28;20285;-71
2023/02/15 05:45:11;;;;;;;;;;;;;;;;;;5054196;28;19925;-71
2023/02/15 05:47:37;;;;;;;;;;;;;;;;;;5055400;28;19917;-71
2023/02/15 05:50:03;;;;;;;;;;;;;;;;;;5053957;28;20270;-70
2023/02/15 05:52:29;;;;;;;;;;;;;;;;;;5054165;28;19931;-71
2023/02/15 05:54:55;;;;;;;;;;;;;;;;;;5056136;28;19909;-71
2023/02/15 05:57:21;;;;;;;;;;;;;;;;;;5056904;28;20327;-71
2023/02/15 05:59:47;;;;;;;;;;;;;;;;;;5055415;28;19931;-71
2023/02/15 06:02:13;;;;;;;;;;;;;;;;;;5054935;28;19909;-73
2023/02/15 06:04:39;;;;;;;;;;;;;;;;;;5055760;28;19955;-71
2023/02/15 06:07:05;;;;;;;;;;;;;;;;;;5054753;28;19917;-71
2023/02/15 06:09:31;;;;;;;;;;;;;;;;;;5055352;28;19913;-71
2023/02/15 06:11:57;;;;;;;;;;;;;;;;;;5055373;28;20003;-71
2023/02/15 06:14:23;;;;;;;;;;;;;;;;;;5054814;28;19978;-71
2023/02/15 06:16:48;;;;;;;;;;;;;;;;;;5055175;28;19908;-71
2023/02/15 06:19:14;;;;;;;;;;;;;;;;;;5054808;28;19956;-71
2023/02/15 06:21:40;;;;;;;;;;;;;;;;;;5048026;28;19920;-70
2023/02/15 06:24:06;;;;;;;;;;;;;;;;;;5031092;28;19913;-71
2023/02/15 06:26:32;;;;;;;;;;;;;;;;;;5032350;28;19960;-70
2023/02/15 06:28:58;;;;;;;;;;;;;;;;;;5024864;28;19913;-70
2023/02/15 06:31:24;;;;;;;;;;;;;;;;;;5022310;28;19964;-70
2023/02/15 06:33:50;;;;;;;;;;;;;;;;;;5025473;28;19916;-71
2023/02/15 06:36:16;;;;;;;;;;;;;;;;;;5037125;28;19909;-70
2023/02/15 06:38:42;;;;;;;;;;;;;;;;;;5032596;28;19916;-70
2023/02/15 06:41:08;;;;;;;;;;;;;;;;;;5029335;28;19913;-71
2023/02/15 06:43:34;;;;;;;;;;;;;;;;;;5039257;28;19917;-70
2023/02/15 06:46:00;;;;;;;;;;;;;;;;;;5051690;28;19921;-70
2023/02/15 06:48:26;;;;;;;;;;;;;;;;;;5051355;28;19915;-70
2023/02/15 06:50:52;;;;;;;;;;;;;;;;;;5053083;28;19908;-70
2023/02/15 06:53:18;;;;;;;;;;;;;;;;;;5052850;28;19909;-70
2023/02/15 06:55:44;;;;;;;;;;;;;;;;;;5053051;28;19908;-70
2023/02/15 06:58:09;;;;;;;;;;;;;;;;;;5054129;28;19916;-70
2023/02/15 07:00:35;;;;;;;;;;;;;;;;;;5053945;28;19909;-70
2023/02/15 07:03:02;;;;;;;;;;;;;;;;;;5053538;28;19908;-70
2023/02/15 07:05:31;;;;;;;;;;;;;;;;;;5053949;28;19916;-70
2023/02/15 07:07:57;;;;;;;;;;;;;;;;;;5053015;28;19912;-70
2023/02/15 07:10:23;;;;;;;;;;;;;;;;;;5053459;28;20004;-70
2023/02/15 07:12:49;;;;;;;;;;;;;;;;;;5025245;28;19913;-70
2023/02/15 07:15:15;;;;;;;;;;;;;;;;;;5032170;28;19909;-70
2023/02/15 07:17:41;;;;;;;;;;;;;;;;;;5032244;28;19916;-70
2023/02/15 07:20:07;;;;;;;;;;;;;;;;;;5029039;28;20520;-71
2023/02/15 07:22:35;;;;;;;;;;;;;;;;;;5026707;28;19913;-71
2023/02/15 07:25:01;;;;;;;;;;;;;;;;;;5028550;28;19944;-71
2023/02/15 07:27:27;;;;;;;;;;;;;;;;;;5030288;28;20341;-71
2023/02/15 07:29:53;;;;;;;;;;;;;;;;;;5045445;28;20285;-69
2023/02/15 07:32:19;;;;;;;;;;;;;;;;;;5050611;28;19920;-69
2023/02/15 07:34:45;;;;;;;;;;;;;;;;;;5052083;28;19913;-68
2023/02/15 07:37:11;;;;;;;;;;;;;;;;;;5052826;28;19958;-69
2023/02/15 07:39:37;;;;;;;;;;;;;;;;;;5051647;28;19915;-69
2023/02/15 07:42:03;;;;;;;;;;;;;;;;;;5052598;28;20332;-69
2023/02/15 07:44:29;;;;;;;;;;;;;;;;;;5052609;28;20281;-68
2023/02/15 07:46:55;;;;;;;;;;;;;;;;;;5052866;28;19924;-69
2023/02/15 07:49:21;;;;;;;;;;;;;;;;;;5051623;28;19944;-69
2023/02/15 07:51:47;;;;;;;;;;;;;;;;;;5051820;28;20675;-70
2023/02/15 07:54:13;;;;;;;;;;;;;;;;;;5052134;28;19913;-69
2023/02/15 07:56:39;;;;;;;;;;;;;;;;;;5051870;28;19908;-69
2023/02/15 07:59:05;;;;;;;;;;;;;;;;;;5051632;28;19909;-69
2023/02/15 08:01:31;;;;;;;;;;;;;;;;;;5041070;28;20008;-69
2023/02/15 08:03:57;;;;;;;;;;;;;;;;;;5028404;28;20008;-69
2023/02/15 08:06:23;;;;;;;;;;;;;;;;;;5027815;28;19971;-69
2023/02/15 08:08:49;;;;;;;;;;;;;;;;;;5030571;28;20353;-69
2023/02/15 08:11:35;;;;;;;;;;;;;;;;;;5020822;28;20004;-69
2023/02/15 08:14:04;;;;;;;;;;;;;;;;;;5028817;28;20440;-67
2023/02/15 08:16:31;;;;;;;;;;;;;;;;;;5028248;28;20289;-67
2023/02/15 08:18:57;;;;;;;;;;;;;;;;;;5029709;28;19933;-68
2023/02/15 08:21:23;;;;;;;;;;;;;;;;;;5030864;28;20280;-68
2023/02/15 08:23:49;;;;;;;;;;;;;;;;;;5031312;28;20004;-68
2023/02/15 08:26:16;;;;;;;;;;;;;;;;;;5024286;28;19935;-68
2023/02/15 08:28:43;;;;;;;;;;;;;;;;;;5025239;28;19919;-68
2023/02/15 08:31:09;;;;;;;;;;;;;;;;;;5028336;28;20027;-68
2023/02/15 08:33:34;;;;;;;;;;;;;;;;;;5022532;28;19956;-68
2023/02/15 08:36:00;;;;;;;;;;;;;;;;;;5017119;28;20400;-68
2023/02/15 08:38:26;;;;;;;;;;;;;;;;;;5015179;28;19917;-68
2023/02/15 08:40:52;;;;;;;;;;;;;;;;;;5014607;28;20003;-68
2023/02/15 08:43:18;;;;;;;;;;;;;;;;;;5014752;28;19910;-67
2023/02/15 08:45:44;;;;;;;;;;;;;;;;;;5014640;28;19922;-68
2023/02/15 08:48:10;;;;;;;;;;;;;;;;;;5014431;28;19916;-68
2023/02/15 08:50:36;;;;;;;;;;;;;;;;;;5015213;28;20047;-68
2023/02/15 08:53:03;;;;;;;;;;;;;;;;;;5034369;28;19919;-68
2023/02/15 08:55:29;;;;;;;;;;;;;;;;;;5053515;28;19913;-68
2023/02/15 08:57:55;;;;;;;;;;;;;;;;;;5032611;28;19963;-68
2023/02/15 09:00:22;;;;;;;;;;;;;;;;;;5036144;28;19923;-68
2023/02/15 09:02:48;;;;;;;;;;;;;;;;;;5043894;28;19908;-68
2023/02/15 09:05:14;;;;;;;;;;;;;;;;;;5052456;28;19935;-69
2023/02/15 09:07:40;;;;;;;;;;;;;;;;;;5040481;28;19925;-68
2023/02/15 09:10:06;;;;;;;;;;;;;;;;;;5048871;28;20279;-68
2023/02/15 09:12:32;;;;;;;;;;;;;;;;;;5032287;28;19909;-68
2023/02/15 09:14:58;;;;;;;;;;;;;;;;;;5024612;28;19967;-68
2023/02/15 09:17:24;;;;;;;;;;;;;;;;;;5025807;28;19913;-68
2023/02/15 09:19:50;;;;;;;;;;;;;;;;;;5030481;28;19956;-69
2023/02/15 09:22:16;;;;;;;;;;;;;;;;;;5024616;28;19944;-69
2023/02/15 09:24:42;;;;;;;;;;;;;;;;;;5032359;28;19916;-69
2023/02/15 09:27:08;;;;;;;;;;;;;;;;;;5034439;28;19923;-70
2023/02/15 09:29:34;;;;;;;;;;;;;;;;;;5034266;28;19910;-69
2023/02/15 09:32:00;;;;;;;;;;;;;;;;;;5034003;28;20366;-70
2023/02/15 09:34:26;;;;;;;;;;;;;;;;;;5034402;28;19917;-69
2023/02/15 09:36:52;;;;;;;;;;;;;;;;;;5033283;28;19932;-70
2023/02/15 09:39:18;;;;;;;;;;;;;;;;;;5034163;28;20004;-69
2023/02/15 09:41:44;;;;;;;;;;;;;;;;;;5039962;28;20003;-70
2023/02/15 09:44:10;;;;;;;;;;;;;;;;;;5051469;28;20311;-69
2023/02/15 09:46:36;;;;;;;;;;;;;;;;;;5049859;28;20024;-69
2023/02/15 09:49:02;;;;;;;;;;;;;;;;;;5049293;28;19970;-69
2023/02/15 09:51:28;;;;;;;;;;;;;;;;;;5043364;28;20680;-69
2023/02/15 09:53:54;;;;;;;;;;;;;;;;;;5031628;28;20015;-69
2023/02/15 09:56:20;;;;;;;;;;;;;;;;;;5031395;28;20015;-70
2023/02/15 09:58:46;;;;;;;;;;;;;;;;;;5032385;28;19924;-69
2023/02/15 10:01:12;;;;;;;;;;;;;;;;;;5032278;28;19944;-69
2023/02/15 10:03:38;;;;;;;;;;;;;;;;;;5032544;28;19917;-69
2023/02/15 10:06:04;;;;;;;;;;;;;;;;;;5033470;28;20354;-69
2023/02/15 10:08:30;;;;;;;;;;;;;;;;;;5034914;28;19909;-70
2023/02/15 10:10:56;;;;;;;;;;;;;;;;;;5033512;28;19940;-70
2023/02/15 10:13:22;;;;;;;;;;;;;;;;;;5032766;28;19909;-70
2023/02/15 10:15:51;;;;;;;;;;;;;;;;;;5034454;28;19913;-69
2023/02/15 10:18:17;;;;;;;;;;;;;;;;;;5034795;28;19910;-68
2023/02/15 10:20:43;;;;;;;;;;;;;;;;;;5032827;28;19916;-67
2023/02/15 10:23:09;;;;;;;;;;;;;;;;;;5030471;28;19956;-68
2023/02/15 10:25:35;;;;;;;;;;;;;;;;;;5032034;28;19909;-68
2023/02/15 10:28:01;;;;;;;;;;;;;;;;;;5034739;28;19963;-66
2023/02/15 10:30:27;;;;;;;;;;;;;;;;;;5032448;28;19909;-68
2023/02/15 10:32:53;;;;;;;;;;;;;;;;;;5032721;28;19913;-67
2023/02/15 10:35:19;;;;;;;;;;;;;;;;;;5031541;28;20381;-69
2023/02/15 10:37:45;;;;;;;;;;;;;;;;;;5032134;28;19909;-69
2023/02/15 10:40:11;;;;;;;;;;;;;;;;;;5031716;28;20365;-69
2023/02/15 10:42:37;;;;;;;;;;;;;;;;;;5031977;28;19920;-69
2023/02/15 10:45:03;;;;;;;;;;;;;;;;;;5031606;28;19925;-69
2023/02/15 10:47:29;;;;;;;;;;;;;;;;;;5031122;28;19932;-72
2023/02/15 10:49:55;;;;;;;;;;;;;;;;;;5030562;28;19921;-71
2023/02/15 10:52:21;;;;;;;;;;;;;;;;;;5027984;28;20376;-71
2023/02/15 10:54:47;;;;;;;;;;;;;;;;;;5030389;28;19947;-71
2023/02/15 10:57:13;;;;;;;;;;;;;;;;;;5030116;28;20409;-72
2023/02/15 10:59:39;;;;;;;;;;;;;;;;;;5028583;28;20332;-72
2023/02/15 11:02:05;;;;;;;;;;;;;;;;;;5021528;28;20683;-72
2023/02/15 11:04:31;;;;;;;;;;;;;;;;;;5024278;28;19925;-72
2023/02/15 11:06:57;;;;;;;;;;;;;;;;;;5022239;28;19928;-72
2023/02/15 11:09:23;;;;;;;;;;;;;;;;;;5023743;28;19919;-71
2023/02/15 11:11:50;;;;;;;;;;;;;;;;;;5030201;28;20004;-72
2023/02/15 11:14:16;;;;;;;;;;;;;;;;;;5027940;28;19917;-72
2023/02/15 11:16:42;;;;;;;;;;;;;;;;;;5013447;28;20013;-71
2023/02/15 11:19:18;;;;;;;;;;;;;;;;;;5087703;27;19916;-72
2023/02/15 11:21:44;;;;;;;;;;;;;;;;;;5082205;28;19913;-72
2023/02/15 11:24:11;;;;;;;;;;;;;;;;;;5080570;28;20364;-72
2023/02/15 11:26:37;;;;;;;;;;;;;;;;;;5086022;28;19945;-70
2023/02/15 11:30:09;;;;;;;;;;;;;;;;;;5072718;28;19913;-72
2023/02/15 11:34:42;;;;;;;;;;;;;;;;;;5150330;27;19921;-72
2023/02/15 11:37:08;;;;;;;;;;;;;;;;;;5148167;27;19911;-72
2023/02/15 11:39:34;;;;;;;;;;;;;;;;;;5129174;27;19952;-71
2023/02/15 11:42:43;;;;;;;;;;;;;;;;;;5106164;27;20421;-70
2023/02/15 11:45:10;;;;;;;;;;;;;;;;;;5104983;28;19912;-71
2023/02/15 11:47:36;;;;;;;;;;;;;;;;;;5098768;28;20344;-70
2023/02/15 11:50:02;;;;;;;;;;;;;;;;;;5100912;28;19926;-71
2023/02/15 11:52:28;;;;;;;;;;;;;;;;;;5095458;28;19909;-71
2023/02/15 11:54:54;;;;;;;;;;;;;;;;;;5100297;28;20418;-71
2023/02/15 12:00:31;;;;;;;;;;;;;;;;;;5080505;27;20286;-70
2023/02/15 12:04:39;;;;;;;;;;;;;;;;;;5087431;27;19923;-71
2023/02/15 12:07:07;;;;;;;;;;;;;;;;;;5067046;28;19912;-72
2023/02/15 12:09:34;;;;;;;;;;;;;;;;;;5067185;28;19908;-72
2023/02/15 12:12:00;;;;;;;;;;;;;;;;;;5064693;28;19913;-72
2023/02/15 12:14:26;;;;;;;;;;;;;;;;;;5066521;28;20813;-71
2023/02/15 12:16:52;;;;;;;;;;;;;;;;;;5065177;28;20359;-72
2023/02/15 12:19:50;;;;;;;;;;;;;;;;;;5091217;27;19920;-72
2023/02/15 12:25:11;;;;;;;;;;;;;;;;;;5083898;27;20317;-71
2023/02/15 12:27:37;;;;;;;;;;;;;;;;;;5066391;28;19919;-72
2023/02/15 12:32:35;;;;;;;;;;;;;;;;;;5107769;27;19926;-72
2023/02/15 12:36:11;;;;;;;;;;;;;;;;;;5109549;27;19916;-72
2023/02/15 12:39:21;;;;;;;;;;;;;;;;;;5129429;27;20391;-72
2023/02/15 12:41:47;;;;;;;;;;;;;;;;;;5130614;28;19911;-72
2023/02/15 12:47:13;;;;;;;;;;;;;;;;;;5087951;27;19918;-72
2023/02/15 12:49:39;;;;;;;;;;;;;;;;;;5088706;28;19999;-72
2023/02/15 12:54:09;;;;;;;;;;;;;;;;;;5110665;27;19916;-72
2023/02/15 12:56:36;;;;;;;;;;;;;;;;;;5110243;28;19999;-72
2023/02/15 12:59:02;;;;;;;;;;;;;;;;;;5110807;28;19986;-72
2023/02/15 13:01:28;;;;;;;;;;;;;;;;;;5109853;28;19913;-72
2023/02/15 13:03:54;;;;;;;;;;;;;;;;;;5111069;28;19916;-70
2023/02/15 13:06:20;;;;;;;;;;;;;;;;;;5111120;28;20409;-72
2023/02/15 13:08:46;;;;;;;;;;;;;;;;;;5110734;28;20312;-71
2023/02/15 13:11:12;;;;;;;;;;;;;;;;;;5111005;28;19919;-71
2023/02/15 13:13:37;;;;;;;;;;;;;;;;;;5106024;28;19977;-71
2023/02/15 13:19:55;;;;;;;;;;;;;;;;;;5088082;27;19916;-71
2023/02/15 13:22:21;;;;;;;;;;;;;;;;;;5087573;28;19913;-70
2023/02/15 13:24:47;;;;;;;;;;;;;;;;;;5083336;28;20269;-70
2023/02/15 13:29:22;;;;;;;;;;;;;;;;;;5101361;27;19919;-71
2023/02/15 13:31:50;;;;;;;;;;;;;;;;;;5096911;28;19918;-72
2023/02/15 13:34:18;;;;;;;;;;;;;;;;;;5079651;28;19912;-71
2023/02/15 13:36:44;;;;;;;;;;;;;;;;;;5083614;28;20292;-71
2023/02/15 13:39:10;;;;;;;;;;;;;;;;;;5085539;28;19927;-72
2023/02/15 13:41:36;;;;;;;;;;;;;;;;;;5088009;28;20441;-71
2023/02/15 13:45:37;;;;;;;;;;;;;;;;;;5067941;28;19923;-72
2023/02/15 13:48:03;;;;;;;;;;;;;;;;;;5067934;28;20000;-71
2023/02/15 13:50:29;;;;;;;;;;;;;;;;;;5067992;28;19948;-71
2023/02/15 13:52:55;;;;;;;;;;;;;;;;;;5068762;28;19909;-71
2023/02/15 13:55:21;;;;;;;;;;;;;;;;;;5069822;28;19978;-71
2023/02/15 13:57:47;;;;;;;;;;;;;;;;;;5070284;28;19996;-70
2023/02/15 14:00:13;;;;;;;;;;;;;;;;;;5070366;28;19943;-70
2023/02/15 14:02:39;;;;;;;;;;;;;;;;;;5070343;28;19932;-69
2023/02/15 14:05:05;;;;;;;;;;;;;;;;;;5068261;28;20292;-71
2023/02/15 14:07:32;;;;;;;;;;;;;;;;;;5068781;28;19909;-70
2023/02/15 14:09:58;;;;;;;;;;;;;;;;;;5065559;28;20757;-70
2023/02/15 14:12:24;;;;;;;;;;;;;;;;;;5067174;28;20020;-70
2023/02/15 14:14:50;;;;;;;;;;;;;;;;;;5069504;28;19919;-71
2023/02/15 14:17:16;;;;;;;;;;;;;;;;;;5068856;28;19909;-71
2023/02/15 14:19:42;;;;;;;;;;;;;;;;;;5069202;28;20384;-71
2023/02/15 14:22:08;;;;;;;;;;;;;;;;;;5067790;28;19909;-71
2023/02/15 14:24:34;;;;;;;;;;;;;;;;;;5068601;28;20008;-73
2023/02/15 14:27:00;;;;;;;;;;;;;;;;;;5067721;28;20460;-70
2023/02/15 14:29:26;;;;;;;;;;;;;;;;;;5067365;28;20113;-70
2023/02/15 14:31:52;;;;;;;;;;;;;;;;;;5067485;28;19909;-73
2023/02/15 14:34:18;;;;;;;;;;;;;;;;;;5067677;28;19921;-70
2023/02/15 14:36:44;;;;;;;;;;;;;;;;;;5069391;28;20365;-72
2023/02/15 14:41:00;;;;;;;;;;;;;;;;;;5067638;28;20285;-71
2023/02/15 14:41:49;;;;;;;;;;;;;;;;;;5108966;27;20299;-72
2023/02/15 14:44:15;;;;;;;;;;;;;;;;;;5109511;28;20380;-73
2023/02/15 14:46:41;;;;;;;;;;;;;;;;;;5109141;28;19965;-69
2023/02/15 14:49:07;;;;;;;;;;;;;;;;;;5108204;28;19908;-70
2023/02/15 14:51:33;;;;;;;;;;;;;;;;;;5108608;28;19916;-70
2023/02/15 14:53:59;;;;;;;;;;;;;;;;;;5107273;28;20356;-70
2023/02/15 14:56:25;;;;;;;;;;;;;;;;;;5109872;28;20368;-70
2023/02/15 14:58:52;;;;;;;;;;;;;;;;;;5111475;28;19947;-71
2023/02/15 15:01:18;;;;;;;;;;;;;;;;;;5110928;28;20288;-70
2023/02/15 15:03:44;;;;;;;;;;;;;;;;;;5111079;28;19908;-70
2023/02/15 15:06:09;;;;;;;;;;;;;;;;;;5111249;28;19969;-71
2023/02/15 15:08:35;;;;;;;;;;;;;;;;;;5110790;28;19908;-70
2023/02/15 15:11:01;;;;;;;;;;;;;;;;;;5111064;28;19915;-70
2023/02/15 15:13:27;;;;;;;;;;;;;;;;;;5110055;28;19908;-70
2023/02/15 15:15:53;;;;;;;;;;;;;;;;;;5110797;28;20420;-70
2023/02/15 15:18:19;;;;;;;;;;;;;;;;;;5111004;28;20000;-70
2023/02/15 15:20:45;;;;;;;;;;;;;;;;;;5110886;28;19962;-70
2023/02/15 15:24:06;;;;;;;;;;;;;;;;;;5092316;27;19912;-71
2023/02/15 15:26:40;;;;;;;;;;;;;;;;;;5091351;28;20476;-72
2023/02/15 15:29:06;;;;;;;;;;;;;;;;;;5091082;28;19916;-71
2023/02/15 15:31:32;;;;;;;;;;;;;;;;;;5091167;28;19962;-71
2023/02/15 15:33:58;;;;;;;;;;;;;;;;;;5091249;28;19908;-71
2023/02/15 15:36:24;;;;;;;;;;;;;;;;;;5090800;28;19909;-71
2023/02/15 15:38:50;;;;;;;;;;;;;;;;;;5090695;28;19959;-72
2023/02/15 15:41:16;;;;;;;;;;;;;;;;;;5089890;28;19916;-72
2023/02/15 15:43:42;;;;;;;;;;;;;;;;;;5089224;28;19962;-71
2023/02/15 15:46:08;;;;;;;;;;;;;;;;;;5090893;28;19951;-71
2023/02/15 15:48:34;;;;;;;;;;;;;;;;;;5089581;28;19947;-72
2023/02/15 15:53:42;;;;;;;;;;;;;;;;;;5091274;27;20296;-72
2023/02/15 15:56:08;;;;;;;;;;;;;;;;;;5091105;28;19912;-72
2023/02/15 15:59:40;;;;;;;;;;;;;;;;;;5111682;27;19922;-71
2023/02/15 16:02:06;;;;;;;;;;;;;;;;;;5111790;28;20006;-71
2023/02/15 16:04:32;;;;;;;;;;;;;;;;;;5111125;28;19916;-71
2023/02/15 16:06:58;;;;;;;;;;;;;;;;;;5111559;28;19998;-72
2023/02/15 16:09:24;;;;;;;;;;;;;;;;;;5111536;28;19908;-72
2023/02/15 16:11:50;;;;;;;;;;;;;;;;;;5111114;28;19959;-72
2023/02/15 16:14:16;;;;;;;;;;;;;;;;;;5110104;28;19915;-72
2023/02/15 16:16:42;;;;;;;;;;;;;;;;;;5111228;28;19916;-71
2023/02/15 16:19:08;;;;;;;;;;;;;;;;;;5109495;28;19939;-71
2023/02/15 16:21:34;;;;;;;;;;;;;;;;;;5111299;28;20318;-71
2023/02/15 16:24:00;;;;;;;;;;;;;;;;;;5111105;28;20380;-71
2023/02/15 16:26:26;;;;;;;;;;;;;;;;;;5109239;28;19930;-72
2023/02/15 16:28:52;;;;;;;;;;;;;;;;;;5110905;28;19912;-70
2023/02/15 16:31:18;;;;;;;;;;;;;;;;;;5109673;28;19947;-70
2023/02/15 16:33:44;;;;;;;;;;;;;;;;;;5111055;28;19930;-70
2023/02/15 16:36:10;;;;;;;;;;;;;;;;;;5110991;28;19912;-71
2023/02/15 16:38:36;;;;;;;;;;;;;;;;;;5110506;28;19916;-71
2023/02/15 16:41:02;;;;;;;;;;;;;;;;;;5110947;28;19915;-71
2023/02/15 16:43:28;;;;;;;;;;;;;;;;;;5111103;28;19943;-71
2023/02/15 16:45:54;;;;;;;;;;;;;;;;;;5110419;28;19908;-71
2023/02/15 16:48:20;;;;;;;;;;;;;;;;;;5110682;28;19922;-70
2023/02/15 16:50:46;;;;;;;;;;;;;;;;;;5109304;28;19908;-71
2023/02/15 16:53:12;;;;;;;;;;;;;;;;;;5110251;28;19908;-71
2023/02/15 16:55:38;;;;;;;;;;;;;;;;;;5109327;28;19934;-71
2023/02/15 16:58:04;;;;;;;;;;;;;;;;;;5108822;28;19955;-71
2023/02/15 17:00:30;;;;;;;;;;;;;;;;;;5110125;28;19914;-70
2023/02/15 17:02:55;;;;;;;;;;;;;;;;;;5110410;28;19912;-70
2023/02/15 17:05:21;;;;;;;;;;;;;;;;;;5110409;28;19915;-70
2023/02/15 17:07:47;;;;;;;;;;;;;;;;;;5108587;28;19908;-70
2023/02/15 17:10:13;;;;;;;;;;;;;;;;;;5101073;28;19908;-71
2023/02/15 17:12:40;;;;;;;;;;;;;;;;;;5096739;28;19914;-70
2023/02/15 17:15:06;;;;;;;;;;;;;;;;;;5096223;28;19908;-70
2023/02/15 17:17:32;;;;;;;;;;;;;;;;;;5096543;28;19969;-71
2023/02/15 17:19:57;;;;;;;;;;;;;;;;;;5095307;28;19916;-71
2023/02/15 17:22:23;;;;;;;;;;;;;;;;;;5094891;28;20002;-72
2023/02/15 17:24:51;;;;;;;;;;;;;;;;;;5097159;28;20387;-70
2023/02/15 17:27:16;;;;;;;;;;;;;;;;;;5095192;28;19986;-72
2023/02/15 17:29:42;;;;;;;;;;;;;;;;;;5096161;28;19930;-71
2023/02/15 17:32:08;;;;;;;;;;;;;;;;;;5096360;28;19908;-71
2023/02/15 17:34:34;;;;;;;;;;;;;;;;;;5095938;28;19908;-71
2023/02/15 17:37:02;;;;;;;;;;;;;;;;;;5095052;28;19919;-71
2023/02/15 17:39:28;;;;;;;;;;;;;;;;;;5096242;28;19945;-71